createdAt,value
2022-11-24T00:01:52.274Z,-1.81
2022-11-24T00:04:22.514Z,-1.79
2022-11-24T00:06:53.137Z,-1.73
2022-11-24T00:09:21.923Z,-1.74
2022-11-24T00:11:50.386Z,-1.72
2022-11-24T00:14:19.694Z,-1.70
2022-11-24T00:16:48.476Z,-1.69
2022-11-24T00:19:19.964Z,-1.71
2022-11-24T00:21:49.758Z,-1.74
2022-11-24T00:24:18.564Z,-1.75
2022-11-24T00:26:52.922Z,-1.78
2022-11-24T00:29:21.670Z,-1.82
2022-11-24T00:31:55.167Z,-1.85
2022-11-24T00:34:24.228Z,-1.86
2022-11-24T00:36:52.870Z,-1.89
2022-11-24T00:39:22.760Z,-1.93
2022-11-24T00:41:57.226Z,-1.94
2022-11-24T00:44:26.007Z,-1.97
2022-11-24T00:46:55.075Z,-1.99
2022-11-24T00:49:24.039Z,-1.97
2022-11-24T00:51:55.514Z,-1.94
2022-11-24T00:54:24.451Z,-1.94
2022-11-24T00:56:58.392Z,-1.94
2022-11-24T00:59:27.968Z,-1.94
2022-11-24T01:01:56.543Z,-1.93
2022-11-24T01:04:25.438Z,-1.92
2022-11-24T01:06:54.097Z,-1.90
2022-11-24T01:09:26.595Z,-1.87
2022-11-24T01:12:01.819Z,-1.85
2022-11-24T01:14:33.400Z,-1.83
2022-11-24T01:17:05.606Z,-1.80
2022-11-24T01:19:34.626Z,-1.78
2022-11-24T01:22:02.998Z,-1.76
2022-11-24T01:24:32.109Z,-1.74
2022-11-24T01:27:01.194Z,-1.73
2022-11-24T01:29:30.294Z,-1.71
2022-11-24T01:31:58.981Z,-1.71
2022-11-24T01:34:27.674Z,-1.74
2022-11-24T01:36:59.676Z,-1.75
2022-11-24T01:39:30.307Z,-1.75
2022-11-24T01:42:02.316Z,-1.74
2022-11-24T01:44:31.983Z,-1.69
2022-11-24T01:47:02.881Z,-1.63
2022-11-24T01:49:40.556Z,-1.60
2022-11-24T01:52:16.521Z,-1.59
2022-11-24T01:54:48.172Z,-1.60
2022-11-24T01:57:23.718Z,-1.63
2022-11-24T01:59:57.004Z,-1.64
2022-11-24T02:02:31.777Z,-1.64
2022-11-24T02:05:08.121Z,-1.66
2022-11-24T02:07:37.990Z,-1.65
2022-11-24T02:10:13.470Z,-1.67
2022-11-24T02:12:47.777Z,-1.70
2022-11-24T02:15:20.364Z,-1.68
2022-11-24T02:17:50.423Z,-1.64
2022-11-24T02:20:22.561Z,-1.60
2022-11-24T02:22:57.092Z,-1.55
2022-11-24T02:25:34.312Z,-1.54
2022-11-24T02:28:20.003Z,-1.54
2022-11-24T02:30:49.871Z,-1.54
2022-11-24T02:33:21.050Z,-1.55
2022-11-24T02:35:52.201Z,-1.57
2022-11-24T02:38:30.669Z,-1.59
2022-11-24T02:41:02.331Z,-1.61
2022-11-24T02:43:35.603Z,-1.64
2022-11-24T02:46:04.200Z,-1.64
2022-11-24T02:48:33.219Z,-1.64
2022-11-24T02:51:01.889Z,-1.62
2022-11-24T02:53:30.701Z,-1.59
2022-11-24T02:55:59.373Z,-1.55
2022-11-24T02:58:27.813Z,-1.50
2022-11-24T03:00:56.851Z,-1.51
2022-11-24T03:03:25.872Z,-1.50
2022-11-24T03:05:54.632Z,-1.50
2022-11-24T03:08:23.787Z,-1.52
2022-11-24T03:10:52.715Z,-1.53
2022-11-24T03:13:21.158Z,-1.54
2022-11-24T03:15:49.985Z,-1.59
2022-11-24T03:18:18.763Z,-1.61
2022-11-24T03:20:47.257Z,-1.64
2022-11-24T03:23:16.150Z,-1.63
2022-11-24T03:25:47.365Z,-1.63
2022-11-24T03:28:15.698Z,-1.59
2022-11-24T03:30:44.012Z,-1.59
2022-11-24T03:33:12.819Z,-1.60
2022-11-24T03:35:42.951Z,-1.66
2022-11-24T03:38:11.676Z,-1.67
2022-11-24T03:40:40.155Z,-1.65
2022-11-24T03:43:08.504Z,-1.67
2022-11-24T03:45:45.967Z,-1.73
2022-11-24T03:48:20.704Z,-1.76
2022-11-24T03:50:55.333Z,-1.74
2022-11-24T03:53:25.340Z,-1.72
2022-11-24T03:55:54.608Z,-1.68
2022-11-24T03:58:23.115Z,-1.65
2022-11-24T04:00:53.334Z,-1.66
2022-11-24T04:03:22.469Z,-1.67
2022-11-24T04:05:51.443Z,-1.68
2022-11-24T04:08:23.154Z,-1.70
2022-11-24T04:10:53.143Z,-1.72
2022-11-24T04:13:23.850Z,-1.74
2022-11-24T04:15:52.938Z,-1.75
2022-11-24T04:18:22.277Z,-1.76
2022-11-24T04:20:52.742Z,-1.75
2022-11-24T04:23:22.922Z,-1.73
2022-11-24T04:25:51.771Z,-1.71
2022-11-24T04:28:20.327Z,-1.67
2022-11-24T04:30:48.857Z,-1.64
2022-11-24T04:33:17.493Z,-1.61
2022-11-24T04:35:45.847Z,-1.61
2022-11-24T04:39:22.784Z,-1.68
2022-11-24T04:41:05.454Z,-1.72
2022-11-24T04:43:40.458Z,-1.71
2022-11-24T04:46:11.315Z,-1.70
2022-11-24T04:48:54.352Z,-1.71
2022-11-24T04:51:22.896Z,-1.72
2022-11-24T04:53:53.025Z,-1.71
2022-11-24T04:56:22.015Z,-1.70
2022-11-24T04:58:53.466Z,-1.69
2022-11-24T05:01:21.879Z,-1.66
2022-11-24T05:03:52.811Z,-1.62
2022-11-24T05:06:24.011Z,-1.61
2022-11-24T05:08:52.897Z,-1.62
2022-11-24T05:11:25.387Z,-1.61
2022-11-24T05:13:54.046Z,-1.62
2022-11-24T05:16:23.329Z,-1.62
2022-11-24T05:18:51.751Z,-1.62
2022-11-24T05:21:20.078Z,-1.66
2022-11-24T05:23:48.714Z,-1.67
2022-11-24T05:26:17.894Z,-1.68
2022-11-24T05:28:46.847Z,-1.70
2022-11-24T05:31:15.618Z,-1.70
2022-11-24T05:33:45.164Z,-1.69
2022-11-24T05:36:36.116Z,-1.68
2022-11-24T05:39:05.226Z,-1.65
2022-11-24T05:41:36.456Z,-1.61
2022-11-24T05:44:08.194Z,-1.62
2022-11-24T05:46:42.709Z,-1.64
2022-11-24T05:49:12.838Z,-1.68
2022-11-24T05:51:43.839Z,-1.69
2022-11-24T05:54:12.291Z,-1.70
2022-11-24T05:56:41.138Z,-1.72
2022-11-24T05:59:11.977Z,-1.73
2022-11-24T06:01:43.256Z,-1.75
2022-11-24T06:04:17.742Z,-1.73
2022-11-24T06:06:47.617Z,-1.71
2022-11-24T06:09:17.762Z,-1.70
2022-11-24T06:11:49.297Z,-1.67
2022-11-24T06:14:17.685Z,-1.63
2022-11-24T06:16:46.947Z,-1.62
2022-11-24T06:19:17.770Z,-1.61
2022-11-24T06:21:46.379Z,-1.63
2022-11-24T06:24:17.712Z,-1.64
2022-11-24T06:26:46.697Z,-1.64
2022-11-24T06:29:26.701Z,-1.63
2022-11-24T06:31:55.185Z,-1.66
2022-11-24T06:34:23.941Z,-1.68
2022-11-24T06:36:54.767Z,-1.65
2022-11-24T06:39:23.462Z,-1.61
2022-11-24T06:41:52.839Z,-1.56
2022-11-24T06:44:24.805Z,-1.55
2022-11-24T06:46:56.115Z,-1.51
2022-11-24T06:49:24.548Z,-1.49
2022-11-24T06:51:55.664Z,-1.46
2022-11-24T06:54:24.577Z,-1.41
2022-11-24T06:56:57.042Z,-1.36
2022-11-24T06:59:26.361Z,-1.35
2022-11-24T07:01:54.817Z,-1.38
2022-11-24T07:04:24.627Z,-1.41
2022-11-24T07:06:56.225Z,-1.43
2022-11-24T07:09:24.815Z,-1.42
2022-11-24T07:11:55.808Z,-1.39
2022-11-24T07:14:31.585Z,-1.36
2022-11-24T07:17:06.146Z,-1.33
2022-11-24T07:19:34.771Z,-1.30
2022-11-24T07:22:08.298Z,-1.30
2022-11-24T07:24:37.228Z,-1.28
2022-11-24T07:27:05.958Z,-1.28
2022-11-24T07:29:34.504Z,-1.27
2022-11-24T07:32:05.668Z,-1.27
2022-11-24T07:34:34.825Z,-1.29
2022-11-24T07:37:03.587Z,-1.30
2022-11-24T07:39:33.165Z,-1.31
2022-11-24T07:42:03.116Z,-1.32
2022-11-24T07:44:31.979Z,-1.33
2022-11-24T07:47:01.574Z,-1.32
2022-11-24T07:49:30.191Z,-1.32
2022-11-24T07:52:00.233Z,-1.28
2022-11-24T07:54:31.039Z,-1.25
2022-11-24T07:56:59.495Z,-1.25
2022-11-24T07:59:28.110Z,-1.25
2022-11-24T08:01:57.172Z,-1.25
2022-11-24T08:04:26.028Z,-1.23
2022-11-24T08:06:54.402Z,-1.25
2022-11-24T08:09:23.245Z,-1.28
2022-11-24T08:11:52.587Z,-1.26
2022-11-24T08:14:21.029Z,-1.23
2022-11-24T08:16:58.229Z,-1.21
2022-11-24T08:19:28.172Z,-1.15
2022-11-24T08:21:56.747Z,-1.13
2022-11-24T08:24:26.443Z,-1.12
2022-11-24T08:26:54.899Z,-1.10
2022-11-24T08:29:29.029Z,-1.06
2022-11-24T08:31:58.032Z,-1.01
2022-11-24T08:34:27.410Z,-0.99
2022-11-24T08:36:58.277Z,-0.97
2022-11-24T08:39:26.842Z,-0.94
2022-11-24T08:41:56.863Z,-0.94
2022-11-24T08:44:28.011Z,-0.90
2022-11-24T08:46:57.212Z,-0.88
2022-11-24T08:49:26.420Z,-0.87
2022-11-24T08:51:57.445Z,-0.84
2022-11-24T08:54:27.470Z,-0.82
2022-11-24T08:56:57.267Z,-0.81
2022-11-24T08:59:26.315Z,-0.83
2022-11-24T09:01:54.926Z,-0.84
2022-11-24T09:04:23.585Z,-0.83
2022-11-24T09:06:52.042Z,-0.82
2022-11-24T09:09:22.083Z,-0.79
2022-11-24T09:11:50.614Z,-0.74
2022-11-24T09:14:19.445Z,-0.70
2022-11-24T09:16:51.441Z,-0.67
2022-11-24T09:19:21.634Z,-0.64
2022-11-24T09:21:50.891Z,-0.61
2022-11-24T09:24:21.484Z,-0.61
2022-11-24T09:26:50.238Z,-0.62
2022-11-24T09:29:19.313Z,-0.60
2022-11-24T09:31:52.238Z,-0.63
2022-11-24T09:34:21.717Z,-0.70
2022-11-24T09:36:58.135Z,-0.75
2022-11-24T09:39:26.997Z,-0.71
2022-11-24T09:42:12.333Z,-0.63
2022-11-24T09:44:59.657Z,-0.56
2022-11-24T09:47:39.050Z,-0.54
2022-11-24T09:50:15.153Z,-0.55
2022-11-24T09:52:50.307Z,-0.53
2022-11-24T09:55:34.439Z,-0.52
2022-11-24T09:58:24.247Z,-0.54
2022-11-24T10:00:55.520Z,-0.55
2022-11-24T10:03:32.077Z,-0.55
2022-11-24T10:06:06.571Z,-0.53
2022-11-24T10:08:53.787Z,-0.50
2022-11-24T10:11:35.513Z,-0.48
2022-11-24T10:14:34.839Z,-0.49
2022-11-24T10:17:12.522Z,-0.51
2022-11-24T10:19:45.790Z,-0.52
2022-11-24T10:22:30.352Z,-0.50
2022-11-24T10:25:24.318Z,-0.47
2022-11-24T10:27:57.198Z,-0.44
2022-11-24T10:30:27.955Z,-0.46
2022-11-24T10:33:00.409Z,-0.43
2022-11-24T10:35:37.354Z,-0.38
2022-11-24T10:38:16.233Z,-0.33
2022-11-24T10:40:57.018Z,-0.32
2022-11-24T10:43:27.772Z,-0.27
2022-11-24T10:46:00.472Z,-0.23
2022-11-24T10:48:37.083Z,-0.21
2022-11-24T10:51:43.868Z,-0.21
2022-11-24T10:54:17.078Z,-0.26
2022-11-24T10:56:50.174Z,-0.30
2022-11-24T10:59:36.950Z,-0.29
2022-11-24T11:02:29.567Z,-0.24
2022-11-24T11:05:19.875Z,-0.21
2022-11-24T11:07:48.349Z,-0.19
2022-11-24T11:10:21.587Z,-0.16
2022-11-24T11:12:50.165Z,-0.12
2022-11-24T11:15:30.053Z,-0.10
2022-11-24T11:18:00.435Z,-0.01
2022-11-24T11:20:31.387Z,0.02
2022-11-24T11:23:13.444Z,0.01
2022-11-24T11:25:43.213Z,-0.03
2022-11-24T11:28:23.125Z,-0.06
2022-11-24T11:31:16.809Z,-0.05
2022-11-24T11:34:06.193Z,0.00
2022-11-24T11:36:41.342Z,0.04
2022-11-24T11:39:22.727Z,0.07
2022-11-24T11:41:55.559Z,0.04
2022-11-24T11:44:34.926Z,-0.01
2022-11-24T11:47:14.024Z,-0.05
2022-11-24T11:49:44.669Z,-0.06
2022-11-24T11:52:40.445Z,-0.07
2022-11-24T11:55:25.284Z,-0.08
2022-11-24T11:58:03.393Z,-0.09
2022-11-24T12:00:36.361Z,-0.11
2022-11-24T12:03:41.590Z,-0.15
2022-11-24T12:06:23.487Z,-0.18
2022-11-24T12:12:12.776Z,-0.13
2022-11-24T12:14:48.811Z,-0.15
2022-11-24T12:17:28.600Z,-0.12
2022-11-24T12:20:13.955Z,-0.09
2022-11-24T12:22:48.222Z,-0.09
2022-11-24T12:25:26.215Z,-0.07
2022-11-24T12:28:08.736Z,-0.07
2022-11-24T12:30:46.936Z,-0.11
2022-11-24T12:33:57.909Z,-0.16
2022-11-24T12:36:50.052Z,-0.16
2022-11-24T12:39:31.501Z,-0.18
2022-11-24T12:42:09.710Z,-0.18
2022-11-24T12:45:18.224Z,-0.18
2022-11-24T12:48:12.667Z,-0.13
2022-11-24T12:50:45.561Z,-0.09
2022-11-24T12:53:17.065Z,-0.07
2022-11-24T12:55:46.921Z,-0.05
2022-11-24T12:58:25.290Z,-0.04
2022-11-24T13:01:16.243Z,-0.05
2022-11-24T13:03:56.959Z,-0.05
2022-11-24T13:06:36.453Z,-0.08
2022-11-24T13:09:12.673Z,-0.06
2022-11-24T13:11:45.708Z,-0.06
2022-11-24T13:14:18.201Z,-0.04
2022-11-24T13:17:21.896Z,0.03
2022-11-24T13:19:43.215Z,0.13
2022-11-24T13:22:16.708Z,0.13
2022-11-24T13:24:45.503Z,0.09
2022-11-24T13:27:27.879Z,0.06
2022-11-24T13:29:58.011Z,-0.02
2022-11-24T13:32:46.929Z,-0.07
2022-11-24T13:35:16.383Z,-0.11
2022-11-24T13:37:52.187Z,-0.16
2022-11-24T13:40:45.903Z,-0.19
2022-11-24T13:43:26.107Z,-0.18
2022-11-24T13:45:55.222Z,-0.18
2022-11-24T13:48:59.284Z,-0.17
2022-11-24T13:51:28.119Z,-0.18
2022-11-24T13:54:00.464Z,-0.18
2022-11-24T13:56:31.056Z,-0.18
2022-11-24T13:59:02.876Z,-0.18
2022-11-24T14:01:32.663Z,-0.21
2022-11-24T14:04:35.246Z,-0.24
2022-11-24T14:07:09.200Z,-0.28
2022-11-24T14:09:43.599Z,-0.33
2022-11-24T14:12:21.064Z,-0.38
2022-11-24T14:14:55.268Z,-0.40
2022-11-24T14:17:27.900Z,-0.43
2022-11-24T14:19:58.079Z,-0.45
2022-11-24T14:22:40.520Z,-0.48
2022-11-24T14:25:26.423Z,-0.50
2022-11-24T14:27:55.291Z,-0.51
2022-11-24T14:30:24.942Z,-0.51
2022-11-24T14:32:58.095Z,-0.51
2022-11-24T14:35:29.418Z,-0.51
2022-11-24T14:38:00.009Z,-0.53
2022-11-24T14:40:40.648Z,-0.55
2022-11-24T14:43:20.241Z,-0.57
2022-11-24T14:45:54.932Z,-0.62
2022-11-24T14:48:28.349Z,-0.66
2022-11-24T14:51:11.568Z,-0.69
2022-11-24T14:53:43.559Z,-0.71
2022-11-24T14:56:26.130Z,-0.71
2022-11-24T14:58:56.752Z,-0.69
2022-11-24T15:01:32.315Z,-0.68
2022-11-24T15:04:46.435Z,-0.65
2022-11-24T15:07:21.245Z,-0.62
2022-11-24T15:09:52.530Z,-0.63
2022-11-24T15:12:28.173Z,-0.66
2022-11-24T15:15:00.656Z,-0.67
2022-11-24T15:17:30.156Z,-0.69
2022-11-24T15:20:02.648Z,-0.72
2022-11-24T15:22:41.477Z,-0.74
2022-11-24T15:25:36.772Z,-0.76
2022-11-24T15:28:11.428Z,-0.78
2022-11-24T15:30:40.169Z,-0.79
2022-11-24T15:33:15.161Z,-0.79
2022-11-24T15:35:44.633Z,-0.80
2022-11-24T15:38:16.766Z,-0.79
2022-11-24T15:40:48.130Z,-0.76
2022-11-24T15:43:28.509Z,-0.71
2022-11-24T15:45:59.062Z,-0.71
2022-11-24T15:48:28.275Z,-0.71
2022-11-24T15:50:57.954Z,-0.72
2022-11-24T15:53:31.126Z,-0.73
2022-11-24T15:56:01.771Z,-0.73
2022-11-24T15:58:30.294Z,-0.75
2022-11-24T16:00:58.908Z,-0.78
2022-11-24T16:03:57.371Z,-0.80
2022-11-24T16:06:24.127Z,-0.82
2022-11-24T16:11:37.199Z,-0.82
2022-11-24T16:14:05.770Z,-0.80
2022-11-24T16:16:41.011Z,-0.77
2022-11-24T16:19:10.163Z,-0.73
2022-11-24T16:21:38.707Z,-0.72
2022-11-24T16:24:08.010Z,-0.71
2022-11-24T16:26:36.419Z,-0.69
2022-11-24T16:29:04.869Z,-0.70
2022-11-24T16:31:37.924Z,-0.74
2022-11-24T16:34:07.152Z,-0.76
2022-11-24T16:36:38.641Z,-0.79
2022-11-24T16:39:07.258Z,-0.82
2022-11-24T16:41:37.820Z,-0.85
2022-11-24T16:44:09.929Z,-0.88
2022-11-24T16:46:40.996Z,-0.90
2022-11-24T16:49:09.710Z,-0.89
2022-11-24T16:51:38.320Z,-0.87
2022-11-24T16:54:06.902Z,-0.86
2022-11-24T16:56:36.220Z,-0.84
2022-11-24T16:59:04.567Z,-0.80
2022-11-24T17:01:36.116Z,-0.76
2022-11-24T17:04:09.584Z,-0.74
2022-11-24T17:06:43.756Z,-0.73
2022-11-24T17:09:16.631Z,-0.78
2022-11-24T17:11:53.415Z,-0.81
2022-11-24T17:14:26.084Z,-0.80
2022-11-24T17:16:58.561Z,-0.74
2022-11-24T17:19:34.100Z,-0.75
2022-11-24T17:22:07.623Z,-0.74
2022-11-24T17:24:52.994Z,-0.70
2022-11-24T17:27:24.369Z,-0.62
2022-11-24T17:29:53.179Z,-0.55
2022-11-24T17:32:24.496Z,-0.55
2022-11-24T17:34:53.564Z,-0.52
2022-11-24T17:37:22.901Z,-0.52
2022-11-24T17:40:12.926Z,-0.57
2022-11-24T17:42:40.416Z,-0.62
2022-11-24T17:45:10.660Z,-0.66
2022-11-24T17:47:39.271Z,-0.67
2022-11-24T17:50:10.274Z,-0.69
2022-11-24T17:52:39.059Z,-0.68
2022-11-24T17:55:09.782Z,-0.67
2022-11-24T17:57:38.686Z,-0.67
2022-11-24T18:00:09.271Z,-0.68
2022-11-24T18:02:41.083Z,-0.68
2022-11-24T18:05:10.265Z,-0.69
2022-11-24T18:07:38.771Z,-0.68
2022-11-24T18:10:09.316Z,-0.67
2022-11-24T18:12:37.994Z,-0.66
2022-11-24T18:15:08.713Z,-0.68
2022-11-24T18:17:39.173Z,-0.73
2022-11-24T18:20:10.157Z,-0.76
2022-11-24T18:25:29.456Z,-0.78
2022-11-24T18:27:58.344Z,-0.76
2022-11-24T18:30:27.115Z,-0.73
2022-11-24T18:32:57.867Z,-0.70
2022-11-24T18:35:26.363Z,-0.64
2022-11-24T18:37:55.044Z,-0.55
2022-11-24T18:40:29.188Z,-0.48
2022-11-24T18:42:58.585Z,-0.46
2022-11-24T18:45:27.359Z,-0.46
2022-11-24T18:47:56.107Z,-0.48
2022-11-24T18:50:24.959Z,-0.51
2022-11-24T18:52:54.326Z,-0.53
2022-11-24T18:55:25.772Z,-0.58
2022-11-24T18:57:54.770Z,-0.57
2022-11-24T19:00:24.284Z,-0.56
2022-11-24T19:02:53.755Z,-0.54
2022-11-24T19:05:23.509Z,-0.50
2022-11-24T19:07:54.691Z,-0.45
2022-11-24T19:10:23.676Z,-0.42
2022-11-24T19:12:52.331Z,-0.47
2022-11-24T19:15:21.035Z,-0.47
2022-11-24T19:17:50.554Z,-0.50
2022-11-24T19:20:19.281Z,-0.55
2022-11-24T19:22:47.970Z,-0.59
2022-11-24T19:25:18.429Z,-0.65
2022-11-24T19:27:47.143Z,-0.71
2022-11-24T19:30:17.029Z,-0.75
2022-11-24T19:32:46.090Z,-0.77
2022-11-24T19:35:15.089Z,-0.76
2022-11-24T19:37:44.045Z,-0.75
2022-11-24T19:40:14.782Z,-0.69
2022-11-24T19:42:43.599Z,-0.65
2022-11-24T19:45:13.205Z,-0.62
2022-11-24T19:47:41.736Z,-0.54
2022-11-24T19:50:12.669Z,-0.54
2022-11-24T19:52:41.221Z,-0.58
2022-11-24T19:55:10.468Z,-0.60
2022-11-24T19:57:39.111Z,-0.66
2022-11-24T20:00:15.211Z,-0.73
2022-11-24T20:02:44.262Z,-0.76
2022-11-24T20:05:13.357Z,-0.77
2022-11-24T20:07:41.711Z,-0.80
2022-11-24T20:10:11.257Z,-0.81
2022-11-24T20:12:39.808Z,-0.82
2022-11-24T20:15:13.316Z,-0.81
2022-11-24T20:17:42.514Z,-0.80
2022-11-24T20:20:16.436Z,-0.79
2022-11-24T20:22:45.975Z,-0.77
2022-11-24T20:25:15.531Z,-0.76
2022-11-24T20:27:46.386Z,-0.76
2022-11-24T20:30:15.384Z,-0.77
2022-11-24T20:32:44.010Z,-0.79
2022-11-24T20:35:18.040Z,-0.81
2022-11-24T20:37:47.334Z,-0.78
2022-11-24T20:40:16.201Z,-0.77
2022-11-24T20:42:47.637Z,-0.77
2022-11-24T20:45:16.353Z,-0.78
2022-11-24T20:47:45.035Z,-0.79
2022-11-24T20:50:13.957Z,-0.80
2022-11-24T20:52:42.877Z,-0.79
2022-11-24T20:55:15.186Z,-0.80
2022-11-24T20:57:47.673Z,-0.81
2022-11-24T21:00:17.732Z,-0.81
2022-11-24T21:02:46.485Z,-0.80
2022-11-24T21:05:15.226Z,-0.82
2022-11-24T21:07:43.698Z,-0.83
2022-11-24T21:10:12.444Z,-0.84
2022-11-24T21:12:42.385Z,-0.83
2022-11-24T21:15:11.435Z,-0.80
2022-11-24T21:17:40.219Z,-0.77
2022-11-24T21:20:12.962Z,-0.73
2022-11-24T21:22:41.811Z,-0.69
2022-11-24T21:25:10.913Z,-0.69
2022-11-24T21:27:40.559Z,-0.71
2022-11-24T21:30:11.468Z,-0.72
2022-11-24T21:32:40.298Z,-0.74
2022-11-24T21:35:09.771Z,-0.78
2022-11-24T21:37:38.615Z,-0.81
2022-11-24T21:40:09.704Z,-0.82
2022-11-24T21:42:38.673Z,-0.80
2022-11-24T21:45:11.330Z,-0.75
2022-11-24T21:47:41.977Z,-0.70
2022-11-24T21:50:12.092Z,-0.67
2022-11-24T21:52:40.995Z,-0.65
2022-11-24T21:55:10.145Z,-0.64
2022-11-24T21:57:39.085Z,-0.66
2022-11-24T22:00:09.480Z,-0.69
2022-11-24T22:02:38.348Z,-0.74
2022-11-24T22:05:09.001Z,-0.79
2022-11-24T22:07:40.789Z,-0.80
2022-11-24T22:10:11.196Z,-0.81
2022-11-24T22:12:39.720Z,-0.82
2022-11-24T22:15:09.819Z,-0.83
2022-11-24T22:17:38.622Z,-0.84
2022-11-24T22:20:10.782Z,-0.83
2022-11-24T22:22:39.438Z,-0.80
2022-11-24T22:25:11.962Z,-0.81
2022-11-24T22:27:40.825Z,-0.80
2022-11-24T22:30:11.416Z,-0.80
2022-11-24T22:32:40.020Z,-0.80
2022-11-24T22:35:10.039Z,-0.81
2022-11-24T22:37:38.830Z,-0.84
2022-11-24T22:40:09.647Z,-0.83
2022-11-24T22:42:38.248Z,-0.80
2022-11-24T22:45:11.392Z,-0.81
2022-11-24T22:47:41.239Z,-0.79
2022-11-24T22:50:17.644Z,-0.78
2022-11-24T22:52:46.220Z,-0.74
2022-11-24T22:55:16.243Z,-0.72
2022-11-24T22:57:52.298Z,-0.68
2022-11-24T23:00:25.561Z,-0.69
2022-11-24T23:02:55.426Z,-0.71
2022-11-24T23:05:25.996Z,-0.77
2022-11-24T23:07:55.028Z,-0.79
2022-11-24T23:10:25.925Z,-0.74
2022-11-24T23:12:55.470Z,-0.68
2022-11-24T23:15:24.170Z,-0.62
2022-11-24T23:17:52.458Z,-0.56
2022-11-24T23:20:23.151Z,-0.54
2022-11-24T23:22:55.654Z,-0.56
2022-11-24T23:25:24.798Z,-0.52
2022-11-24T23:27:53.078Z,-0.50
2022-11-24T23:30:24.300Z,-0.50
2022-11-24T23:32:53.860Z,-0.52
2022-11-24T23:35:23.441Z,-0.53
2022-11-24T23:38:07.123Z,-0.51
2022-11-24T23:40:36.762Z,-0.51
2022-11-24T23:43:09.200Z,-0.50
2022-11-24T23:45:38.066Z,-0.44
2022-11-24T23:48:09.015Z,-0.45
2022-11-24T23:50:37.368Z,-0.50
2022-11-24T23:53:06.019Z,-0.52
2022-11-24T23:55:34.325Z,-0.53
2022-11-24T23:58:09.085Z,-0.60
